Time;durP1;ratioP1;P1;durP2;ratioP2;P2;SDS_P1;SDS_P2;PMS_P1;PMS_P2;Temp;Humidity;BMP_temperature;BMP_pressure;BME280_temperature;BME280_humidity;BME280_pressure;Samples;Min_cycle;Max_cycle;Signal;HPM_P1;HPM_P2
2023/09/27 00:02:16;;;;;;;0.10;0.10;;;;;;;14.08;100.00;97012.34;4933465;28;20813;-85
2023/09/27 00:05:06;;;;;;;0.10;0.10;;;;;;;14.07;100.00;97016.09;4933466;28;20523;-89
2023/09/27 00:07:52;;;;;;;0.08;0.08;;;;;;;14.22;100.00;97005.47;4935868;28;20062;-87
2023/09/27 00:10:41;;;;;;;0.10;0.10;;;;;;;14.17;100.00;97002.75;4933589;28;20048;-87
2023/09/27 00:13:27;;;;;;;0.10;0.10;;;;;;;14.19;100.00;97003.28;4931886;28;20125;-88
2023/09/27 00:16:12;;;;;;;0.10;0.10;;;;;;;14.16;100.00;97019.13;4932310;28;20102;-85
2023/09/27 00:18:58;;;;;;;0.10;0.10;;;;;;;14.07;100.00;97029.56;4934658;28;20039;-86
2023/09/27 00:21:44;;;;;;;0.00;0.00;;;;;;;13.73;100.00;97029.00;4933850;28;20082;-87
2023/09/27 00:24:30;;;;;;;0.00;0.00;;;;;;;13.43;100.00;97039.44;4934547;28;20050;-84
2023/09/27 00:27:16;;;;;;;0.10;0.10;;;;;;;13.34;100.00;97039.06;4934610;28;20858;-89
2023/09/27 00:30:03;;;;;;;0.10;0.10;;;;;;;13.24;100.00;97045.16;4934526;28;20035;-87
2023/09/27 00:32:48;;;;;;;0.10;0.10;;;;;;;13.14;100.00;97036.09;4934457;28;20062;-85
2023/09/27 00:35:34;;;;;;;0.00;0.00;;;;;;;13.09;100.00;97043.06;4932333;28;20443;-88
2023/09/27 00:38:20;;;;;;;0.10;0.10;;;;;;;13.11;100.00;97034.75;4934608;28;20584;-87
2023/09/27 00:41:06;;;;;;;0.10;0.10;;;;;;;13.10;100.00;97031.25;4934941;28;20078;-87
2023/09/27 00:43:53;;;;;;;0.10;0.10;;;;;;;13.10;100.00;97017.00;4934829;28;20129;-87
2023/09/27 00:46:39;;;;;;;0.10;0.10;;;;;;;13.00;100.00;97004.25;4933170;28;20053;-85
2023/09/27 00:49:25;;;;;;;0.10;0.10;;;;;;;12.72;100.00;97009.81;4921787;28;20085;-88
2023/09/27 00:52:13;;;;;;;0.10;0.10;;;;;;;12.50;100.00;97013.25;4936333;28;20377;-86
2023/09/27 00:54:59;;;;;;;0.10;0.10;;;;;;;12.42;100.00;97013.69;4934212;28;20800;-86
2023/09/27 00:57:49;;;;;;;0.05;0.05;;;;;;;12.46;100.00;97009.47;4934976;28;20146;-86
2023/09/27 01:00:35;;;;;;;0.05;0.05;;;;;;;12.40;100.00;97002.38;4933594;28;20406;-85
2023/09/27 01:03:20;;;;;;;0.10;0.10;;;;;;;12.44;100.00;97000.00;4929516;28;20043;-86
2023/09/27 01:06:08;;;;;;;0.10;0.10;;;;;;;12.52;100.00;97008.44;4931886;28;20051;-88
2023/09/27 01:08:53;;;;;;;0.10;0.10;;;;;;;12.55;100.00;96996.44;4933950;28;20051;-85
2023/09/27 01:11:39;;;;;;;0.10;0.10;;;;;;;12.26;100.00;96998.41;4933857;28;20055;-86
2023/09/27 01:14:25;;;;;;;0.10;0.10;;;;;;;12.13;100.00;96985.34;4933383;28;20046;-87
2023/09/27 01:17:11;;;;;;;0.00;0.00;;;;;;;12.03;100.00;96994.03;4934419;28;20065;-86
2023/09/27 01:19:57;;;;;;;0.10;0.10;;;;;;;11.99;100.00;97003.66;4936637;28;20896;-86
2023/09/27 01:22:43;;;;;;;0.10;0.10;;;;;;;11.87;100.00;97017.13;4939853;28;20047;-85
2023/09/27 01:25:39;;;;;;;0.10;0.10;;;;;;;11.92;100.00;97003.81;4953376;28;20070;-85
2023/09/27 01:28:24;;;;;;;0.10;0.10;;;;;;;11.91;100.00;97007.56;4956022;28;20127;-87
2023/09/27 01:31:12;;;;;;;0.10;0.10;;;;;;;11.78;100.00;97012.38;4937604;28;20347;-89
2023/09/27 01:33:58;;;;;;;0.00;0.00;;;;;;;11.79;100.00;97020.19;4938459;28;20549;-89
2023/09/27 01:36:44;;;;;;;0.10;0.10;;;;;;;11.82;100.00;97018.91;4939444;28;20043;-85
2023/09/27 01:39:30;;;;;;;0.05;0.05;;;;;;;11.88;100.00;97018.75;4939828;28;20043;-88
2023/09/27 01:42:16;;;;;;;0.10;0.10;;;;;;;11.69;100.00;97028.06;4938211;28;20079;-87
2023/09/27 01:45:03;;;;;;;0.10;0.10;;;;;;;11.70;100.00;97038.53;4938473;28;20051;-87
2023/09/27 01:47:49;;;;;;;0.10;0.10;;;;;;;11.79;100.00;97047.00;4939821;28;20854;-89
2023/09/27 01:50:36;;;;;;;0.00;0.00;;;;;;;11.87;100.00;97045.81;4935864;28;20122;-86
2023/09/27 01:53:21;;;;;;;0.10;0.10;;;;;;;11.91;100.00;97036.25;4936680;28;20051;-87
2023/09/27 01:56:07;;;;;;;0.10;0.10;;;;;;;11.95;100.00;97040.84;4934083;28;20039;-88
2023/09/27 01:58:56;;;;;;;0.00;0.00;;;;;;;11.87;100.00;97040.44;4924935;28;20059;-89
2023/09/27 02:01:42;;;;;;;0.10;0.10;;;;;;;11.62;100.00;97046.16;4925335;28;20055;-89
2023/09/27 02:04:28;;;;;;;0.10;0.10;;;;;;;11.51;100.00;97044.31;4937536;28;20602;-90
2023/09/27 02:07:13;;;;;;;0.10;0.10;;;;;;;11.60;100.00;97050.94;4924978;28;20074;-87
2023/09/27 02:09:59;;;;;;;0.00;0.00;;;;;;;11.60;100.00;97049.06;4923120;28;20054;-86
2023/09/27 02:12:45;;;;;;;0.05;0.05;;;;;;;11.55;100.00;97045.47;4939984;28;20055;-87
2023/09/27 02:15:31;;;;;;;0.10;0.10;;;;;;;11.50;100.00;97048.88;4936899;28;20051;-88
2023/09/27 02:18:17;;;;;;;0.00;0.00;;;;;;;11.54;100.00;97051.91;4939133;28;20044;-89
2023/09/27 02:21:03;;;;;;;0.00;0.00;;;;;;;11.42;100.00;97046.56;4925044;28;20051;-86
2023/09/27 02:23:49;;;;;;;0.10;0.10;;;;;;;11.46;100.00;97052.28;4928169;28;20043;-85
2023/09/27 02:26:36;;;;;;;0.10;0.10;;;;;;;11.55;100.00;97046.28;4950565;28;20150;-87
2023/09/27 02:29:21;;;;;;;0.10;0.10;;;;;;;11.55;100.00;97054.34;4938705;28;20047;-90
2023/09/27 02:32:07;;;;;;;0.05;0.05;;;;;;;11.49;100.00;97065.19;4935840;28;20054;-87
2023/09/27 02:34:53;;;;;;;0.10;0.10;;;;;;;11.27;100.00;97065.84;4938345;28;20128;-88
2023/09/27 02:37:41;;;;;;;0.10;0.10;;;;;;;11.26;100.00;97074.13;4938279;28;20647;-86
2023/09/27 02:40:28;;;;;;;0.10;0.10;;;;;;;11.25;100.00;97073.31;4935369;28;21155;-87
2023/09/27 02:43:14;;;;;;;0.10;0.10;;;;;;;11.25;100.00;97065.28;4937697;28;20080;-87
2023/09/27 02:46:00;;;;;;;0.10;0.10;;;;;;;11.28;100.00;97069.34;4940215;28;20494;-88
2023/09/27 02:48:46;;;;;;;0.10;0.10;;;;;;;11.21;100.00;97063.31;4938077;28;20054;-84
2023/09/27 02:51:32;;;;;;;0.10;0.10;;;;;;;11.28;100.00;97054.06;4938518;28;20615;-89
2023/09/27 02:54:18;;;;;;;0.00;0.00;;;;;;;11.23;100.00;97047.81;4937866;28;20110;-87
2023/09/27 02:57:04;;;;;;;0.10;0.10;;;;;;;11.23;100.00;97045.97;4937357;28;20676;-87
2023/09/27 02:59:49;;;;;;;0.10;0.10;;;;;;;11.27;100.00;97051.63;4937469;28;20523;-88
2023/09/27 03:02:36;;;;;;;0.10;0.10;;;;;;;11.29;100.00;97042.34;4938020;28;20058;-87
2023/09/27 03:05:23;;;;;;;0.10;0.10;;;;;;;11.37;100.00;97043.81;4935359;28;20047;-86
2023/09/27 03:08:10;;;;;;;0.10;0.10;;;;;;;11.37;100.00;97044.63;4921116;29;20039;-87
2023/09/27 03:10:56;;;;;;;0.00;0.00;;;;;;;11.48;100.00;97031.41;4923665;28;20039;-86
2023/09/27 03:13:43;;;;;;;0.10;0.10;;;;;;;11.60;100.00;97022.28;4935810;28;20047;-86
2023/09/27 03:16:29;;;;;;;0.10;0.10;;;;;;;11.62;100.00;97030.06;4921812;29;20098;-86
2023/09/27 03:19:15;;;;;;;0.00;0.00;;;;;;;11.57;100.00;97028.09;4936388;28;20077;-87
2023/09/27 03:22:01;;;;;;;0.10;0.10;;;;;;;11.56;100.00;97031.84;4936152;28;20538;-87
2023/09/27 03:24:47;;;;;;;0.00;0.00;;;;;;;11.46;100.00;97028.16;4936113;28;20051;-85
2023/09/27 03:27:33;;;;;;;0.00;0.00;;;;;;;11.40;100.00;97036.09;4935224;28;20094;-85
2023/09/27 03:30:19;;;;;;;0.10;0.10;;;;;;;11.13;100.00;97037.72;4921161;29;20049;-86
2023/09/27 03:33:06;;;;;;;0.10;0.10;;;;;;;10.99;100.00;97047.06;4932968;28;20071;-85
2023/09/27 03:35:53;;;;;;;0.10;0.10;;;;;;;10.97;100.00;97054.50;4933900;28;20113;-87
2023/09/27 03:38:39;;;;;;;0.00;0.00;;;;;;;10.87;100.00;97052.44;4920069;28;20159;-88
2023/09/27 03:41:24;;;;;;;0.10;0.10;;;;;;;10.90;100.00;97054.66;4935047;28;20465;-85
2023/09/27 03:44:10;;;;;;;0.10;0.10;;;;;;;10.98;100.00;97048.13;4921140;28;20267;-88
2023/09/27 03:46:56;;;;;;;0.00;0.00;;;;;;;11.00;100.00;97054.06;4930603;28;20413;-85
2023/09/27 03:49:42;;;;;;;0.10;0.10;;;;;;;10.96;100.00;97061.72;4933419;28;20047;-85
2023/09/27 03:52:28;;;;;;;0.10;0.10;;;;;;;11.00;100.00;97062.09;4935175;28;20054;-87
2023/09/27 03:55:14;;;;;;;0.10;0.10;;;;;;;11.05;100.00;97057.66;4932864;28;20320;-85
2023/09/27 03:58:00;;;;;;;0.10;0.10;;;;;;;11.11;100.00;97051.34;4935126;28;20050;-88
2023/09/27 04:00:46;;;;;;;0.10;0.10;;;;;;;11.05;100.00;97056.81;4920870;28;20046;-87
2023/09/27 04:03:32;;;;;;;0.10;0.10;;;;;;;11.04;100.00;97060.56;4935066;28;20051;-86
2023/09/27 04:06:19;;;;;;;0.10;0.10;;;;;;;10.94;100.00;97050.44;4937376;28;20082;-87
2023/09/27 04:09:06;;;;;;;0.10;0.10;;;;;;;10.91;100.00;97055.47;4936268;28;20047;-88
2023/09/27 04:11:51;;;;;;;0.10;0.10;;;;;;;10.86;100.00;97043.59;4935205;28;20455;-88
2023/09/27 04:14:38;;;;;;;0.10;0.10;;;;;;;10.84;100.00;97040.34;4938976;28;20058;-87
2023/09/27 04:17:25;;;;;;;0.00;0.00;;;;;;;10.88;100.00;97038.81;4936954;28;20053;-87
2023/09/27 04:20:16;;;;;;;0.10;0.10;;;;;;;10.93;100.00;97040.78;4934442;28;20043;-85
2023/09/27 04:23:04;;;;;;;0.10;0.10;;;;;;;10.86;100.00;97040.91;4935945;28;20297;-87
2023/09/27 04:25:50;;;;;;;0.10;0.10;;;;;;;10.87;100.00;97047.91;4935848;28;20114;-86
2023/09/27 04:28:36;;;;;;;0.10;0.10;;;;;;;10.79;100.00;97045.59;4933004;28;20422;-85
2023/09/27 04:31:22;;;;;;;0.10;0.10;;;;;;;10.76;100.00;97031.88;4935807;28;20134;-86
2023/09/27 04:34:09;;;;;;;0.10;0.10;;;;;;;10.73;100.00;97032.31;4937306;28;20483;-86
2023/09/27 04:36:55;;;;;;;0.10;0.10;;;;;;;10.86;100.00;97035.56;4936158;28;20039;-88
2023/09/27 04:39:41;;;;;;;0.10;0.10;;;;;;;10.85;100.00;97033.94;4936325;28;20058;-86
2023/09/27 04:42:27;;;;;;;0.10;0.10;;;;;;;10.77;100.00;97034.31;4939377;28;20036;-87
2023/09/27 04:45:14;;;;;;;0.10;0.10;;;;;;;10.71;100.00;97032.56;4960768;28;20052;-85
2023/09/27 04:48:00;;;;;;;0.10;0.10;;;;;;;10.67;100.00;97039.44;4961958;28;20066;-84
2023/09/27 04:50:45;;;;;;;0.10;0.10;;;;;;;10.67;100.00;97044.81;4939351;28;20039;-87
2023/09/27 04:53:34;;;;;;;0.10;0.10;;;;;;;10.63;100.00;97032.94;4936720;28;20039;-86
2023/09/27 04:56:20;;;;;;;0.10;0.10;;;;;;;10.67;100.00;97033.28;4941230;28;20051;-85
2023/09/27 04:59:06;;;;;;;0.10;0.10;;;;;;;10.73;100.00;97043.84;4941116;28;20554;-87
2023/09/27 05:01:52;;;;;;;0.10;0.10;;;;;;;10.76;100.00;97038.03;4941121;28;20055;-86
2023/09/27 05:04:38;;;;;;;0.10;0.10;;;;;;;10.69;100.00;97048.06;4926645;28;20434;-87
2023/09/27 05:07:24;;;;;;;0.10;0.10;;;;;;;10.69;100.00;97053.41;4940253;28;20061;-88
2023/09/27 05:10:10;;;;;;;0.00;0.00;;;;;;;10.70;100.00;97055.03;4940122;28;20067;-87
2023/09/27 05:12:56;;;;;;;0.10;0.10;;;;;;;10.69;100.00;97055.28;4939168;28;20075;-86
2023/09/27 05:15:42;;;;;;;0.10;0.10;;;;;;;10.71;100.00;97047.81;4937928;28;20110;-87
2023/09/27 05:18:28;;;;;;;0.03;0.03;;;;;;;10.74;100.00;97045.50;4938007;28;20201;-87
2023/09/27 05:21:14;;;;;;;0.10;0.10;;;;;;;10.76;100.00;97040.72;4937289;28;20047;-85
2023/09/27 05:24:00;;;;;;;0.10;0.10;;;;;;;10.71;100.00;97031.75;4942488;28;20097;-86
2023/09/27 05:26:46;;;;;;;0.10;0.10;;;;;;;10.68;100.00;97034.91;4929084;28;20766;-88
2023/09/27 05:29:32;;;;;;;0.10;0.10;;;;;;;10.75;100.00;97031.06;4943496;28;20126;-88
2023/09/27 05:32:17;;;;;;;0.10;0.10;;;;;;;10.89;100.00;97036.94;4932083;29;20505;-86
2023/09/27 05:35:04;;;;;;;0.10;0.10;;;;;;;11.02;100.00;97035.88;4943851;28;20311;-86
2023/09/27 05:37:50;;;;;;;0.00;0.00;;;;;;;11.23;100.00;97037.91;4939717;28;20123;-86
2023/09/27 05:40:36;;;;;;;0.10;0.10;;;;;;;11.35;100.00;97025.28;4940528;28;20600;-87
2023/09/27 05:43:22;;;;;;;0.10;0.10;;;;;;;11.46;100.00;97020.13;4939960;28;20126;-87
2023/09/27 05:46:08;;;;;;;0.10;0.10;;;;;;;11.50;100.00;97018.56;4940532;28;20050;-87
2023/09/27 05:48:54;;;;;;;0.00;0.00;;;;;;;11.58;100.00;97021.69;4940524;28;20066;-87
2023/09/27 05:51:41;;;;;;;0.10;0.10;;;;;;;11.62;100.00;97024.72;4937903;28;20146;-90
2023/09/27 05:54:27;;;;;;;0.10;0.10;;;;;;;11.69;100.00;97030.72;4939087;28;20290;-87
2023/09/27 05:57:14;;;;;;;0.03;0.03;;;;;;;11.67;100.00;97022.09;4938088;28;20407;-85
2023/09/27 06:00:00;;;;;;;0.10;0.10;;;;;;;11.71;100.00;97025.94;4938274;28;20043;-86
2023/09/27 06:02:47;;;;;;;0.10;0.10;;;;;;;11.71;100.00;97029.44;4931626;28;20050;-87
2023/09/27 06:05:33;;;;;;;0.10;0.10;;;;;;;11.76;100.00;97038.63;4937745;28;20082;-87
2023/09/27 06:08:19;;;;;;;0.10;0.10;;;;;;;11.77;100.00;97046.44;4939004;28;20549;-86
2023/09/27 06:11:04;;;;;;;0.10;0.10;;;;;;;11.79;100.00;97035.44;4938040;28;20097;-88
2023/09/27 06:13:50;;;;;;;0.10;0.10;;;;;;;11.83;100.00;97040.13;4938402;28;20110;-86
2023/09/27 06:16:38;;;;;;;0.10;0.10;;;;;;;11.89;100.00;97036.47;4937358;28;20043;-85
2023/09/27 06:19:25;;;;;;;0.10;0.10;;;;;;;11.93;100.00;97037.63;4938650;28;20058;-86
2023/09/27 06:22:15;;;;;;;0.10;0.10;;;;;;;12.06;100.00;97030.28;4939641;28;20074;-88
2023/09/27 06:25:01;;;;;;;0.10;0.10;;;;;;;12.18;100.00;97042.56;4936763;28;20468;-87
2023/09/27 06:27:47;;;;;;;0.10;0.10;;;;;;;12.24;100.00;97046.97;4937371;28;20039;-86
2023/09/27 06:30:33;;;;;;;0.10;0.10;;;;;;;12.34;100.00;97038.25;4938056;28;20055;-87
2023/09/27 06:33:19;;;;;;;0.10;0.10;;;;;;;12.44;100.00;97030.34;4938634;28;20418;-88
2023/09/27 06:36:10;;;;;;;0.10;0.10;;;;;;;12.57;100.00;97021.16;4939609;28;20044;-88
2023/09/27 06:38:56;;;;;;;0.10;0.10;;;;;;;12.71;100.00;97016.25;4939457;28;20043;-85
2023/09/27 06:41:44;;;;;;;0.10;0.10;;;;;;;12.93;100.00;97016.25;4937687;28;20047;-88
2023/09/27 06:44:33;;;;;;;0.10;0.10;;;;;;;13.10;100.00;97009.75;4936582;28;20055;-87
2023/09/27 06:47:19;;;;;;;0.00;0.00;;;;;;;13.29;100.00;97023.69;4938022;28;20469;-88
2023/09/27 06:50:06;;;;;;;0.10;0.10;;;;;;;13.46;100.00;97028.97;4937565;28;20127;-89
2023/09/27 06:52:52;;;;;;;0.10;0.10;;;;;;;13.62;100.00;97035.34;4937170;28;20093;-84
2023/09/27 06:55:38;;;;;;;0.10;0.10;;;;;;;13.77;100.00;97031.97;4935580;28;20050;-87
2023/09/27 06:58:25;;;;;;;0.10;0.10;;;;;;;13.90;100.00;97050.41;4937296;28;20043;-84
2023/09/27 07:01:11;;;;;;;0.10;0.10;;;;;;;14.03;100.00;97041.09;4936985;28;20423;-85
2023/09/27 07:03:56;;;;;;;0.10;0.10;;;;;;;14.14;100.00;97034.72;4938747;28;20423;-84
2023/09/27 07:06:42;;;;;;;0.10;0.10;;;;;;;14.27;100.00;97055.03;4936302;28;20047;-87
2023/09/27 07:09:28;;;;;;;0.10;0.10;;;;;;;14.41;100.00;97053.53;4937103;28;20130;-85
2023/09/27 07:12:14;;;;;;;0.10;0.10;;;;;;;14.51;100.00;97052.81;4935060;28;20039;-86
2023/09/27 07:15:01;;;;;;;0.10;0.10;;;;;;;14.60;100.00;97041.28;4937162;28;20403;-87
2023/09/27 07:17:47;;;;;;;0.00;0.00;;;;;;;14.71;100.00;97040.28;4936921;28;20054;-86
2023/09/27 07:20:36;;;;;;;0.10;0.10;;;;;;;14.81;100.00;97028.75;4936710;28;20047;-86
2023/09/27 07:23:23;;;;;;;0.05;0.05;;;;;;;14.88;100.00;97026.66;4937194;28;20039;-87
2023/09/27 07:26:09;;;;;;;0.10;0.10;;;;;;;14.99;100.00;97032.88;4940211;28;20039;-87
2023/09/27 07:28:54;;;;;;;0.10;0.10;;;;;;;14.99;100.00;97041.78;4935792;28;20217;-85
2023/09/27 07:31:41;;;;;;;0.10;0.10;;;;;;;15.02;100.00;97052.06;4921676;28;20055;-86
2023/09/27 07:34:27;;;;;;;0.10;0.10;;;;;;;15.07;100.00;97050.44;4936408;28;20049;-85
2023/09/27 07:37:14;;;;;;;0.10;0.10;;;;;;;15.13;100.00;97050.19;4937115;28;20089;-89
2023/09/27 07:40:00;;;;;;;0.15;0.15;;;;;;;15.18;100.00;97054.81;4935462;28;20043;-89
2023/09/27 07:42:46;;;;;;;0.17;0.17;;;;;;;15.25;100.00;97050.81;4924571;28;20238;-88
2023/09/27 07:45:34;;;;;;;0.10;0.10;;;;;;;15.29;100.00;97054.56;4935939;28;20039;-87
2023/09/27 07:48:21;;;;;;;0.10;0.10;;;;;;;15.31;100.00;97059.69;4922323;28;20391;-89
2023/09/27 07:51:21;;;;;;;0.10;0.10;;;;;;;15.29;100.00;97062.66;4937900;28;20653;-86
2023/09/27 07:54:07;;;;;;;0.10;0.10;;;;;;;15.34;100.00;97059.19;4936415;28;20863;-86
2023/09/27 07:56:54;;;;;;;0.10;0.10;;;;;;;15.48;100.00;97054.09;4939629;28;20072;-88
2023/09/27 07:59:40;;;;;;;0.10;0.10;;;;;;;15.64;100.00;97045.03;4942100;28;20467;-89
2023/09/27 08:02:26;;;;;;;0.10;0.10;;;;;;;15.77;100.00;97031.00;4957097;28;20075;-84
2023/09/27 08:05:16;;;;;;;0.10;0.10;;;;;;;15.92;100.00;97040.19;4960915;28;20055;-85
2023/09/27 08:08:02;;;;;;;0.10;0.10;;;;;;;16.06;100.00;97033.19;4943855;28;20994;-86
2023/09/27 08:10:49;;;;;;;0.10;0.10;;;;;;;16.24;100.00;97029.13;4934485;28;20142;-87
2023/09/27 08:13:35;;;;;;;0.10;0.10;;;;;;;16.47;100.00;97033.19;4935799;28;20039;-85
2023/09/27 08:16:21;;;;;;;0.10;0.10;;;;;;;16.71;100.00;97020.72;4935434;28;20051;-85
2023/09/27 08:19:07;;;;;;;0.10;0.10;;;;;;;16.86;100.00;97017.19;4935831;28;20422;-86
2023/09/27 08:21:55;;;;;;;0.10;0.10;;;;;;;17.09;100.00;97015.75;4923041;28;20315;-85
2023/09/27 08:24:41;;;;;;;0.10;0.10;;;;;;;17.26;100.00;97024.34;4935073;28;20135;-86
2023/09/27 08:27:27;;;;;;;0.13;0.13;;;;;;;17.59;100.00;97025.53;4936511;28;20097;-86
2023/09/27 08:30:13;;;;;;;0.10;0.10;;;;;;;17.94;100.00;97029.94;4934444;28;20043;-86
2023/09/27 08:32:58;;;;;;;0.08;0.08;;;;;;;18.26;100.00;97031.31;4935758;28;20047;-86
2023/09/27 08:35:45;;;;;;;0.03;0.03;;;;;;;18.22;100.00;97030.28;4939450;28;20043;-85
2023/09/27 08:38:31;;;;;;;0.10;0.10;;;;;;;18.41;100.00;97031.19;4941050;28;20667;-86
2023/09/27 08:41:18;;;;;;;0.10;0.10;;;;;;;18.78;100.00;97032.50;4938037;28;20035;-86
2023/09/27 08:44:06;;;;;;;0.10;0.10;;;;;;;19.05;100.00;97032.72;4940148;28;20126;-85
2023/09/27 08:46:54;;;;;;;0.10;0.10;;;;;;;19.30;100.00;97033.53;4937496;28;20102;-86
2023/09/27 08:49:40;;;;;;;0.10;0.10;;;;;;;18.87;100.00;97034.28;4939722;28;20533;-86
2023/09/27 08:52:28;;;;;;;0.10;0.10;;;;;;;18.91;100.00;97026.41;4940126;28;20172;-86
2023/09/27 08:55:17;;;;;;;0.00;0.00;;;;;;;18.95;100.00;97038.28;4940961;28;20485;-86
2023/09/27 08:58:03;;;;;;;0.10;0.10;;;;;;;19.41;100.00;97035.03;4941119;28;20035;-86
2023/09/27 09:00:49;;;;;;;0.10;0.10;;;;;;;19.78;100.00;97022.63;4938337;28;20069;-85
2023/09/27 09:03:37;;;;;;;0.10;0.10;;;;;;;19.92;100.00;97031.63;4938313;28;20050;-86
2023/09/27 09:06:24;;;;;;;0.10;0.10;;;;;;;19.84;100.00;97037.72;4939153;28;20043;-88
2023/09/27 09:09:10;;;;;;;0.10;0.10;;;;;;;19.65;100.00;97035.81;4940211;28;20055;-86
2023/09/27 09:12:00;;;;;;;0.10;0.10;;;;;;;19.89;100.00;97041.19;4939714;28;20047;-85
2023/09/27 09:14:52;;;;;;;0.10;0.10;;;;;;;19.59;100.00;97045.13;4939871;28;20078;-86
2023/09/27 09:17:42;;;;;;;0.10;0.10;;;;;;;19.62;100.00;97049.19;4939848;28;21550;-89
2023/09/27 09:20:32;;;;;;;0.10;0.10;;;;;;;19.71;100.00;97048.22;4938233;28;20499;-84
2023/09/27 09:23:33;;;;;;;0.10;0.10;;;;;;;19.99;100.00;97051.88;4939285;28;20058;-84
2023/09/27 09:26:30;;;;;;;0.10;0.10;;;;;;;20.08;100.00;97057.47;4939934;28;20179;-86
2023/09/27 09:29:18;;;;;;;0.10;0.10;;;;;;;20.17;100.00;97063.84;4940831;28;20043;-86
2023/09/27 09:32:08;;;;;;;0.10;0.10;;;;;;;20.35;100.00;97061.41;4937262;28;20039;-86
2023/09/27 09:34:54;;;;;;;0.10;0.10;;;;;;;20.62;100.00;97056.06;4941351;28;20352;-85
2023/09/27 09:37:42;;;;;;;0.10;0.10;;;;;;;20.74;100.00;97056.41;4939131;28;20075;-88
2023/09/27 09:40:28;;;;;;;0.10;0.10;;;;;;;20.57;100.00;97056.19;4938858;28;20230;-87
2023/09/27 09:43:31;;;;;;;0.10;0.10;;;;;;;20.56;100.00;97055.38;4939181;28;20089;-86
2023/09/27 09:46:23;;;;;;;0.10;0.10;;;;;;;20.29;100.00;97050.59;4938433;28;20039;-86
2023/09/27 09:49:10;;;;;;;0.10;0.10;;;;;;;20.60;100.00;97052.84;4924891;28;20125;-88
2023/09/27 09:51:57;;;;;;;0.08;0.08;;;;;;;20.60;100.00;97052.84;4938556;28;20992;-86
2023/09/27 09:54:49;;;;;;;0.00;0.00;;;;;;;20.57;100.00;97048.03;4939095;28;20047;-86
2023/09/27 09:57:36;;;;;;;0.10;0.10;;;;;;;20.38;100.00;97042.59;4938354;28;20126;-85
2023/09/27 10:00:30;;;;;;;0.10;0.10;;;;;;;20.49;100.00;97043.28;4938439;28;20462;-84
2023/09/27 10:03:20;;;;;;;0.10;0.10;;;;;;;20.57;100.00;97031.72;4936638;28;20050;-85
2023/09/27 10:06:10;;;;;;;0.10;0.10;;;;;;;20.90;100.00;97020.78;4938965;28;20058;-84
2023/09/27 10:08:56;;;;;;;0.10;0.10;;;;;;;21.18;100.00;97036.00;4938520;28;20075;-85
2023/09/27 10:11:44;;;;;;;0.10;0.10;;;;;;;21.89;100.00;97034.53;4938500;28;20055;-84
2023/09/27 10:14:31;;;;;;;0.10;0.10;;;;;;;22.22;100.00;97026.16;4939371;28;20078;-84
2023/09/27 10:17:21;;;;;;;0.10;0.10;;;;;;;22.96;100.00;97026.47;4937761;28;20051;-84
2023/09/27 10:20:13;;;;;;;0.10;0.10;;;;;;;22.98;100.00;97021.50;4936235;28;20423;-84
2023/09/27 10:23:09;;;;;;;0.10;0.10;;;;;;;22.91;100.00;97021.16;4938880;28;20048;-84
2023/09/27 10:25:55;;;;;;;0.15;0.15;;;;;;;24.17;98.29;97004.84;4940180;28;20530;-84
2023/09/27 10:29:03;;;;;;;0.10;0.10;;;;;;;25.23;94.22;96996.88;4904376;28;20055;-85
2023/09/27 10:31:58;;;;;;;0.10;0.10;;;;;;;26.82;80.97;96994.16;4936358;28;20043;-84
2023/09/27 10:34:44;;;;;;;0.10;0.10;;;;;;;28.45;75.28;96995.72;4937539;28;20343;-82
2023/09/27 10:37:59;;;;;;;0.20;0.20;;;;;;;28.48;71.67;96994.19;4936789;28;20193;-85
2023/09/27 10:40:48;;;;;;;0.20;0.20;;;;;;;28.40;67.78;96986.91;4935412;28;20153;-85
2023/09/27 10:43:41;;;;;;;0.10;0.10;;;;;;;28.06;67.22;96978.09;4935531;28;20055;-85
2023/09/27 10:46:40;;;;;;;0.10;0.10;;;;;;;26.83;75.59;96982.84;4938514;28;20057;-85
2023/09/27 10:49:27;;;;;;;0.10;0.10;;;;;;;28.50;73.39;96980.91;4937984;28;20082;-85
2023/09/27 10:52:17;;;;;;;0.10;0.10;;;;;;;28.29;64.22;96978.34;4938572;28;20431;-85
2023/09/27 10:55:14;;;;;;;0.10;0.10;;;;;;;28.69;58.95;96969.19;4935745;28;20051;-85
2023/09/27 10:57:59;;;;;;;0.10;0.10;;;;;;;27.37;65.23;96970.88;4937159;28;20046;-85
2023/09/27 11:00:53;;;;;;;0.20;0.20;;;;;;;29.79;52.92;96963.59;4935640;28;20268;-85
2023/09/27 11:03:39;;;;;;;0.20;0.20;;;;;;;29.31;53.47;96957.41;4932437;28;20055;-86
2023/09/27 11:06:25;;;;;;;0.00;0.00;;;;;;;26.23;79.94;96962.34;4936178;28;20530;-85
2023/09/27 11:09:16;;;;;;;0.10;0.10;;;;;;;26.45;77.84;96957.59;4937945;28;20043;-84
2023/09/27 11:12:02;;;;;;;0.10;0.10;;;;;;;27.98;71.63;96948.78;4937194;28;20122;-85
2023/09/27 11:14:48;;;;;;;0.10;0.10;;;;;;;27.84;61.50;96934.63;4937029;28;20450;-84
2023/09/27 11:17:34;;;;;;;0.10;0.10;;;;;;;29.07;58.17;96936.38;4928392;28;20072;-85
2023/09/27 11:20:20;;;;;;;0.13;0.13;;;;;;;30.84;43.68;96932.19;4957425;28;20054;-83
2023/09/27 11:23:06;;;;;;;0.10;0.10;;;;;;;30.02;44.23;96927.84;4953236;28;20054;-84
2023/09/27 11:25:52;;;;;;;0.13;0.13;;;;;;;29.31;46.61;96932.59;4936738;28;20598;-85
2023/09/27 11:28:38;;;;;;;0.10;0.10;;;;;;;28.86;49.89;96931.09;4934971;28;20265;-86
2023/09/27 11:31:26;;;;;;;0.03;0.03;;;;;;;27.82;63.00;96918.47;4935172;28;20047;-86
2023/09/27 11:34:21;;;;;;;0.00;0.00;;;;;;;28.03;55.13;96921.84;4935053;28;20253;-85
2023/09/27 11:37:17;;;;;;;0.10;0.10;;;;;;;27.99;54.27;96912.66;4935743;28;20416;-85
2023/09/27 11:40:03;;;;;;;0.10;0.10;;;;;;;28.70;56.07;96907.47;4936022;28;20458;-84
2023/09/27 11:42:49;;;;;;;0.10;0.10;;;;;;;29.35;53.36;96894.09;4934658;28;20050;-84
2023/09/27 11:45:46;;;;;;;0.10;0.10;;;;;;;31.06;48.45;96880.81;4936987;28;20106;-85
2023/09/27 11:48:33;;;;;;;0.10;0.10;;;;;;;30.24;48.79;96885.72;4935095;28;20047;-85
2023/09/27 11:51:19;;;;;;;0.10;0.10;;;;;;;30.59;45.15;96878.47;4936678;28;20058;-85
2023/09/27 11:54:05;;;;;;;0.10;0.10;;;;;;;29.66;52.45;96860.94;4935653;28;20102;-85
2023/09/27 11:56:53;;;;;;;0.00;0.00;;;;;;;29.50;53.78;96860.22;4935173;28;20047;-85
2023/09/27 11:59:39;;;;;;;0.10;0.10;;;;;;;28.66;59.97;96857.06;4932663;28;20050;-86
2023/09/27 12:02:25;;;;;;;0.10;0.10;;;;;;;30.19;50.96;96850.16;4934569;28;20048;-85
2023/09/27 12:05:12;;;;;;;0.10;0.10;;;;;;;32.60;41.10;96850.31;4938310;28;20047;-85
2023/09/27 12:07:58;;;;;;;0.10;0.10;;;;;;;32.62;38.79;96847.97;4937478;28;20039;-86
2023/09/27 12:10:45;;;;;;;0.10;0.10;;;;;;;33.07;38.22;96840.38;4934309;28;20051;-84
2023/09/27 12:13:30;;;;;;;0.08;0.08;;;;;;;33.20;37.44;96838.91;4935835;28;20055;-86
2023/09/27 12:16:18;;;;;;;0.10;0.10;;;;;;;32.79;40.49;96847.31;4934913;28;20040;-86
2023/09/27 12:19:04;;;;;;;0.10;0.10;;;;;;;31.01;40.44;96847.97;4936779;28;20043;-86
2023/09/27 12:21:50;;;;;;;0.10;0.10;;;;;;;32.06;41.27;96837.91;4935835;28;20782;-85
2023/09/27 12:24:36;;;;;;;0.10;0.10;;;;;;;33.08;37.01;96823.41;4935314;28;20050;-86
2023/09/27 12:27:21;;;;;;;0.10;0.10;;;;;;;33.48;36.00;96825.22;4934141;28;20574;-85
2023/09/27 12:30:08;;;;;;;0.10;0.10;;;;;;;33.75;35.06;96830.47;4936230;28;20043;-85
2023/09/27 12:32:55;;;;;;;0.10;0.10;;;;;;;32.96;36.85;96827.28;4934826;28;20644;-85
2023/09/27 12:35:42;;;;;;;0.10;0.10;;;;;;;32.71;36.36;96832.59;4936013;28;20054;-85
2023/09/27 12:38:28;;;;;;;0.10;0.10;;;;;;;31.66;39.41;96833.88;4936560;28;20125;-85
2023/09/27 12:41:14;;;;;;;0.10;0.10;;;;;;;30.93;41.76;96826.94;4934913;28;20048;-85
2023/09/27 12:44:00;;;;;;;0.10;0.10;;;;;;;31.88;37.53;96827.44;4921402;28;20074;-83
2023/09/27 12:46:46;;;;;;;0.10;0.10;;;;;;;32.18;36.96;96826.56;4934956;28;20417;-83
2023/09/27 12:49:32;;;;;;;0.10;0.10;;;;;;;32.07;36.94;96820.16;4934496;28;20494;-83
2023/09/27 12:52:18;;;;;;;0.10;0.10;;;;;;;32.06;38.89;96818.53;4935495;28;20499;-84
2023/09/27 12:55:05;;;;;;;0.10;0.10;;;;;;;30.81;37.16;96813.34;4935755;28;20082;-84
2023/09/27 12:57:51;;;;;;;0.10;0.10;;;;;;;30.63;38.02;96819.34;4936241;28;20531;-83
2023/09/27 13:00:38;;;;;;;0.00;0.00;;;;;;;29.36;42.31;96824.06;4933385;28;20429;-83